Kineshma, Russia
Current Conditions -  °F | °C
As of 3:00 PM on Tuesday 27 Jan 2015 (Local Time) from UUDL Reporting Station
Light Snow Light Snow  
Wind Chill:   Ceiling: 2900
Heat Index: 16°   Visibility: 6mi
Dew Point: 12°   Wind: 7mph
Humidity: 86%   Direction: 150°SSE
Pressure: 30.09"   Gusts: NA
Location:  57.44°N, 42.13°E
Report Text: UUDL 271200Z 15003MPS 9000 -SN OVC029 M09/M11 Q1019 NOSIG RMKQFE756 23750449
Loading
Personal Weather Stations






























Interactive Weather Map New forecast layout! Learn more

10-Day Weather Forecast

Advertisements
Track Severe Weather on mobile